Time;durP1;ratioP1;P1;durP2;ratioP2;P2;SDS_P1;SDS_P2;PMS_P1;PMS_P2;Temp;Humidity;BMP_temperature;BMP_pressure;BME280_temperature;BME280_humidity;BME280_pressure;Samples;Min_cycle;Max_cycle;Signal;HPM_P1;HPM_P2
2022/03/17 00:01:42;;;;;;;;;;;-1.50;99.90;;;;;;5053035;28;19968;-73
2022/03/17 00:04:08;;;;;;;;;;;-1.50;99.90;;;;;;5053380;28;20344;-73
2022/03/17 00:06:34;;;;;;;;;;;-1.50;99.90;;;;;;5053230;28;20257;-74
2022/03/17 00:09:00;;;;;;;;;;;-1.50;99.90;;;;;;5054966;28;19955;-72
2022/03/17 00:11:26;;;;;;;;;;;-1.50;99.90;;;;;;5053572;28;19920;-73
2022/03/17 00:13:52;;;;;;;;;;;-1.60;99.90;;;;;;5053045;28;19916;-73
2022/03/17 00:16:17;;;;;;;;;;;-1.60;99.90;;;;;;5054551;28;19920;-72
2022/03/17 00:18:43;;;;;;;;;;;-1.60;99.90;;;;;;5053061;28;19920;-72
2022/03/17 00:21:08;;;;;;;;;;;-1.60;99.90;;;;;;5054274;28;19912;-71
2022/03/17 00:23:34;;;;;;;;;;;-1.70;99.90;;;;;;5052936;28;19920;-72
2022/03/17 00:25:59;;;;;;;;;;;-1.70;99.90;;;;;;5054387;28;19923;-74
2022/03/17 00:28:25;;;;;;;;;;;-1.70;99.90;;;;;;5053093;28;19913;-72
2022/03/17 00:30:51;;;;;;;;;;;-1.70;99.90;;;;;;5054346;28;19924;-73
2022/03/17 00:33:17;;;;;;;;;;;-1.00;99.90;;;;;;5052835;28;19913;-73
2022/03/17 00:35:43;;;;;;;;;;;-1.70;99.90;;;;;;5052678;28;19916;-72
2022/03/17 00:38:16;;;;;;;;;;;-1.80;99.90;;;;;;5054255;28;20019;-72
2022/03/17 00:40:42;;;;;;;;;;;-1.80;99.90;;;;;;5053919;28;20082;-75
2022/03/17 00:43:11;;;;;;;;;;;-1.80;99.90;;;;;;5053971;28;19919;-73
2022/03/17 00:45:38;;;;;;;;;;;-1.30;99.90;;;;;;5054183;28;19927;-72
2022/03/17 00:48:04;;;;;;;;;;;-1.90;99.90;;;;;;5054332;28;20583;-73
2022/03/17 00:50:29;;;;;;;;;;;-1.90;99.90;;;;;;5053927;28;19913;-73
2022/03/17 00:52:55;;;;;;;;;;;-1.90;99.90;;;;;;5053870;28;19913;-73
2022/03/17 00:55:24;;;;;;;;;;;-1.90;99.90;;;;;;5052774;28;19920;-71
2022/03/17 00:57:49;;;;;;;;;;;-1.90;99.90;;;;;;5052521;28;19916;-71
2022/03/17 01:00:15;;;;;;;;;;;-1.90;99.90;;;;;;5052326;28;19913;-73
2022/03/17 01:02:41;;;;;;;;;;;-1.90;99.90;;;;;;5052987;28;19935;-71
2022/03/17 01:05:07;;;;;;;;;;;-2.00;99.90;;;;;;5053772;28;19920;-72
2022/03/17 01:07:33;;;;;;;;;;;-2.00;99.90;;;;;;5053492;28;20491;-72
2022/03/17 01:09:59;;;;;;;;;;;-1.20;99.90;;;;;;5053780;28;19909;-72
2022/03/17 01:12:27;;;;;;;;;;;-2.00;99.90;;;;;;5053455;28;19916;-72
2022/03/17 01:14:53;;;;;;;;;;;-2.00;99.90;;;;;;5053485;28;19948;-73
2022/03/17 01:17:18;;;;;;;;;;;-2.00;99.90;;;;;;5053087;28;21925;-73
2022/03/17 01:19:44;;;;;;;;;;;-2.00;99.90;;;;;;5052174;28;20496;-73
2022/03/17 01:22:11;;;;;;;;;;;-2.10;99.90;;;;;;5051843;28;19944;-72
2022/03/17 01:24:36;;;;;;;;;;;-2.20;99.90;;;;;;5053649;28;19913;-72
2022/03/17 01:27:02;;;;;;;;;;;-2.10;99.90;;;;;;5051847;28;20421;-73
2022/03/17 01:29:29;;;;;;;;;;;-2.10;99.90;;;;;;5053616;28;20000;-72
2022/03/17 01:31:54;;;;;;;;;;;-2.10;99.90;;;;;;5051980;28;20361;-73
2022/03/17 01:34:20;;;;;;;;;;;-2.10;99.90;;;;;;5053338;28;19920;-72
2022/03/17 01:36:45;;;;;;;;;;;-2.10;99.90;;;;;;5052951;28;19920;-72
2022/03/17 01:39:11;;;;;;;;;;;-2.10;99.90;;;;;;5051430;28;20277;-72
2022/03/17 01:41:38;;;;;;;;;;;-2.20;99.90;;;;;;5052857;28;19923;-72
2022/03/17 01:44:04;;;;;;;;;;;-2.20;99.90;;;;;;5053005;28;19924;-73
2022/03/17 01:46:29;;;;;;;;;;;-2.20;99.90;;;;;;5052572;28;19913;-72
2022/03/17 01:48:55;;;;;;;;;;;-2.20;99.90;;;;;;5051527;28;19916;-73
2022/03/17 01:51:20;;;;;;;;;;;-2.30;99.90;;;;;;5051396;28;19963;-72
2022/03/17 01:53:46;;;;;;;;;;;-2.30;99.90;;;;;;5052699;28;19912;-73
2022/03/17 01:56:12;;;;;;;;;;;-2.20;99.90;;;;;;5052967;28;19966;-73
2022/03/17 01:58:38;;;;;;;;;;;-2.30;99.90;;;;;;5052775;28;20323;-71
2022/03/17 02:01:04;;;;;;;;;;;-2.30;99.90;;;;;;5051061;28;19921;-72
2022/03/17 02:03:29;;;;;;;;;;;-2.30;99.90;;;;;;5051107;28;19917;-71
2022/03/17 02:05:55;;;;;;;;;;;-2.40;99.90;;;;;;5051185;28;19971;-72
2022/03/17 02:08:20;;;;;;;;;;;-2.40;99.90;;;;;;5052282;28;19916;-73
2022/03/17 02:13:32;;;;;;;;;;;-2.50;99.90;;;;;;5051627;28;21190;-72
2022/03/17 02:16:01;;;;;;;;;;;-2.50;99.90;;;;;;5051484;28;19958;-73
2022/03/17 02:18:27;;;;;;;;;;;-2.50;99.90;;;;;;5052319;28;19991;-73
2022/03/17 02:20:52;;;;;;;;;;;-2.50;99.90;;;;;;5052155;28;20372;-72
2022/03/17 02:26:03;;;;;;;;;;;-2.60;99.90;;;;;;5052166;28;20250;-72
2022/03/17 02:28:30;;;;;;;;;;;-2.60;99.90;;;;;;5050532;28;19917;-72
2022/03/17 02:30:56;;;;;;;;;;;-2.60;99.90;;;;;;5052010;28;19931;-73
2022/03/17 02:33:22;;;;;;;;;;;-2.70;99.90;;;;;;5051910;28;19932;-73
2022/03/17 02:35:49;;;;;;;;;;;-2.70;99.90;;;;;;5050687;28;19913;-74
2022/03/17 02:38:15;;;;;;;;;;;-2.80;99.90;;;;;;5050827;28;20406;-72
2022/03/17 02:40:42;;;;;;;;;;;-2.80;99.90;;;;;;5052015;28;19912;-72
2022/03/17 02:43:07;;;;;;;;;;;-2.90;99.90;;;;;;5052082;28;19916;-72
2022/03/17 02:45:34;;;;;;;;;;;-2.90;99.90;;;;;;5051941;28;19970;-71
2022/03/17 02:48:00;;;;;;;;;;;-3.00;99.90;;;;;;5052009;28;19917;-71
2022/03/17 02:50:25;;;;;;;;;;;-2.90;99.90;;;;;;5050502;28;19913;-71
2022/03/17 02:52:51;;;;;;;;;;;-2.90;99.90;;;;;;5051767;28;20005;-72
2022/03/17 02:55:17;;;;;;;;;;;-3.00;99.90;;;;;;5051783;28;19939;-71
2022/03/17 02:57:47;;;;;;;;;;;-3.00;99.90;;;;;;5050290;28;19928;-73
2022/03/17 03:00:14;;;;;;;;;;;-2.30;99.90;;;;;;5051790;28;19916;-73
2022/03/17 03:02:40;;;;;;;;;;;-3.10;99.90;;;;;;5051399;28;19921;-73
2022/03/17 03:05:06;;;;;;;;;;;-3.10;99.90;;;;;;5051655;28;20306;-72
2022/03/17 03:07:32;;;;;;;;;;;-3.10;99.90;;;;;;5050205;28;20011;-72
2022/03/17 03:09:58;;;;;;;;;;;-3.10;99.90;;;;;;5051590;28;20285;-74
2022/03/17 03:12:23;;;;;;;;;;;-3.10;99.90;;;;;;5050154;28;20122;-72
2022/03/17 03:14:49;;;;;;;;;;;-3.20;99.90;;;;;;5050154;28;20433;-74
2022/03/17 03:17:15;;;;;;;;;;;-3.20;99.90;;;;;;5051398;28;19909;-72
2022/03/17 03:19:41;;;;;;;;;;;-3.10;99.90;;;;;;5050355;28;19987;-72
2022/03/17 03:22:06;;;;;;;;;;;-3.10;99.90;;;;;;5051685;28;19986;-72
2022/03/17 03:24:33;;;;;;;;;;;-3.20;99.90;;;;;;5050279;28;19913;-73
2022/03/17 03:26:59;;;;;;;;;;;-3.20;99.90;;;;;;5052890;28;19920;-72
2022/03/17 03:29:27;;;;;;;;;;;-3.20;99.90;;;;;;5055840;28;20268;-72
2022/03/17 03:31:54;;;;;;;;;;;-3.30;99.90;;;;;;5055366;28;20280;-72
2022/03/17 03:34:20;;;;;;;;;;;-3.30;99.90;;;;;;5055748;28;19916;-74
2022/03/17 03:39:31;;;;;;;;;;;-2.20;99.90;;;;;;5055856;28;19927;-75
2022/03/17 03:41:56;;;;;;;;;;;-3.40;99.90;;;;;;5055295;28;20317;-72
2022/03/17 03:44:22;;;;;;;;;;;-3.40;99.90;;;;;;5055470;28;20373;-73
2022/03/17 03:46:48;;;;;;;;;;;-3.40;99.90;;;;;;5055467;28;20280;-73
2022/03/17 03:49:13;;;;;;;;;;;-3.50;99.90;;;;;;5055592;28;19917;-72
2022/03/17 03:51:39;;;;;;;;;;;-3.50;99.90;;;;;;5053898;28;19913;-74
2022/03/17 03:54:14;;;;;;;;;;;-3.50;99.90;;;;;;5053513;28;19920;-73
2022/03/17 03:56:40;;;;;;;;;;;-3.50;99.90;;;;;;5055107;28;19913;-73
2022/03/17 03:59:25;;;;;;;;;;;-3.40;99.90;;;;;;5053442;28;19971;-73
2022/03/17 04:01:51;;;;;;;;;;;-3.50;99.90;;;;;;5054826;28;19920;-72
2022/03/17 04:04:20;;;;;;;;;;;-3.50;99.90;;;;;;5053622;28;20023;-74
2022/03/17 04:06:48;;;;;;;;;;;-3.50;99.90;;;;;;5053625;28;19960;-73
2022/03/17 04:09:14;;;;;;;;;;;-3.50;99.90;;;;;;5055123;28;19916;-72
2022/03/17 04:11:40;;;;;;;;;;;-3.50;99.90;;;;;;5055170;28;20217;-72
2022/03/17 04:14:06;;;;;;;;;;;-3.50;99.90;;;;;;5053495;28;19917;-73
2022/03/17 04:16:32;;;;;;;;;;;-3.50;99.90;;;;;;5054739;28;19921;-72
2022/03/17 04:18:57;;;;;;;;;;;-3.40;99.90;;;;;;5054955;28;19921;-72
2022/03/17 04:21:23;;;;;;;;;;;-3.40;99.90;;;;;;5054679;28;20419;-73
2022/03/17 04:23:49;;;;;;;;;;;-3.40;99.90;;;;;;5053397;28;20325;-73
2022/03/17 04:26:14;;;;;;;;;;;-3.40;99.90;;;;;;5054521;28;19909;-72
2022/03/17 04:28:40;;;;;;;;;;;-3.40;99.90;;;;;;5054119;28;19924;-72
2022/03/17 04:31:05;;;;;;;;;;;-3.40;99.90;;;;;;5052999;28;19943;-72
2022/03/17 04:33:31;;;;;;;;;;;-3.40;99.90;;;;;;5054678;28;19917;-73
2022/03/17 04:35:56;;;;;;;;;;;-3.50;99.90;;;;;;5052773;28;19909;-71
2022/03/17 04:38:22;;;;;;;;;;;-3.40;99.90;;;;;;5051846;28;19920;-75
2022/03/17 04:40:49;;;;;;;;;;;-3.40;99.90;;;;;;5054272;28;20379;-72
2022/03/17 04:43:18;;;;;;;;;;;-2.60;99.90;;;;;;5054286;28;19916;-73
2022/03/17 04:45:44;;;;;;;;;;;-3.40;99.90;;;;;;5054089;28;19917;-74
2022/03/17 04:48:10;;;;;;;;;;;-3.40;99.90;;;;;;5054372;28;19927;-73
2022/03/17 04:50:36;;;;;;;;;;;-3.30;99.90;;;;;;5053944;28;19952;-74
2022/03/17 04:55:46;;;;;;;;;;;-3.40;99.90;;;;;;5053734;28;20018;-73
2022/03/17 04:58:13;;;;;;;;;;;-3.30;99.90;;;;;;5053884;28;19917;-71
2022/03/17 05:00:39;;;;;;;;;;;-3.20;99.90;;;;;;5053534;28;19967;-72
2022/03/17 05:03:05;;;;;;;;;;;-3.20;99.90;;;;;;5052138;28;19964;-72
2022/03/17 05:05:30;;;;;;;;;;;-3.10;99.90;;;;;;5053750;28;19912;-72
2022/03/17 05:07:57;;;;;;;;;;;-3.10;99.90;;;;;;5053542;28;19916;-72
2022/03/17 05:10:23;;;;;;;;;;;-3.00;99.90;;;;;;5053480;28;20365;-74
2022/03/17 05:12:49;;;;;;;;;;;-2.80;99.90;;;;;;5053531;28;19924;-72
2022/03/17 05:15:14;;;;;;;;;;;-2.80;99.90;;;;;;5053532;28;19928;-74
2022/03/17 05:17:40;;;;;;;;;;;-2.70;99.90;;;;;;5051941;28;19917;-73
2022/03/17 05:20:10;;;;;;;;;;;-2.70;99.90;;;;;;5053301;28;19959;-73
2022/03/17 05:22:36;;;;;;;;;;;-2.50;99.90;;;;;;5053347;28;19913;-72
2022/03/17 05:25:04;;;;;;;;;;;-2.20;99.90;;;;;;5051785;28;19920;-74
2022/03/17 05:27:30;;;;;;;;;;;-2.00;99.90;;;;;;5051739;28;19916;-72
2022/03/17 05:29:56;;;;;;;;;;;-2.00;99.90;;;;;;5053142;28;19909;-73
2022/03/17 05:32:21;;;;;;;;;;;-1.00;99.90;;;;;;5053189;28;19909;-73
2022/03/17 05:34:47;;;;;;;;;;;-1.90;99.90;;;;;;5052965;28;19935;-72
2022/03/17 05:37:13;;;;;;;;;;;-1.80;99.90;;;;;;5051546;28;20373;-71
2022/03/17 05:39:40;;;;;;;;;;;-1.60;99.90;;;;;;5053430;28;19917;-71
2022/03/17 05:42:06;;;;;;;;;;;-1.50;99.90;;;;;;5051568;28;19990;-71
2022/03/17 05:44:32;;;;;;;;;;;-1.30;99.90;;;;;;5053399;28;19917;-71
2022/03/17 05:46:57;;;;;;;;;;;-1.10;99.90;;;;;;5051430;28;19920;-72
2022/03/17 05:49:23;;;;;;;;;;;-0.90;99.90;;;;;;5053242;28;19923;-73
2022/03/17 05:51:48;;;;;;;;;;;-0.70;99.90;;;;;;5051574;28;19909;-72
2022/03/17 05:54:14;;;;;;;;;;;-0.50;99.90;;;;;;5053506;28;19921;-74
2022/03/17 05:56:39;;;;;;;;;;;-0.30;99.90;;;;;;5052705;28;19959;-73
2022/03/17 05:59:05;;;;;;;;;;;-0.20;99.90;;;;;;5052508;28;19976;-72
2022/03/17 06:01:30;;;;;;;;;;;0.00;99.90;;;;;;5050903;28;20008;-73
2022/03/17 06:03:57;;;;;;;;;;;0.10;99.90;;;;;;5052792;28;19917;-73
2022/03/17 06:06:22;;;;;;;;;;;0.20;99.20;;;;;;5051115;28;19966;-72
2022/03/17 06:08:48;;;;;;;;;;;0.20;99.90;;;;;;5051019;28;19917;-71
2022/03/17 06:11:13;;;;;;;;;;;0.30;99.70;;;;;;5052340;28;20304;-71
2022/03/17 06:13:39;;;;;;;;;;;0.30;99.40;;;;;;5052624;28;19928;-72
2022/03/17 06:16:06;;;;;;;;;;;0.40;99.30;;;;;;5052651;28;19908;-73
2022/03/17 06:18:31;;;;;;;;;;;0.30;99.30;;;;;;5050934;28;20006;-72
2022/03/17 06:20:57;;;;;;;;;;;0.40;99.20;;;;;;5050764;28;19909;-72
2022/03/17 06:23:22;;;;;;;;;;;0.50;99.30;;;;;;5052223;28;19923;-72
2022/03/17 06:25:48;;;;;;;;;;;0.60;98.80;;;;;;5050823;28;19945;-72
2022/03/17 06:28:15;;;;;;;;;;;0.70;98.20;;;;;;5052250;28;19950;-76
2022/03/17 06:30:41;;;;;;;;;;;0.70;98.20;;;;;;5051773;28;19919;-73
2022/03/17 06:33:07;;;;;;;;;;;0.80;97.40;;;;;;5052088;28;19917;-72
2022/03/17 06:35:33;;;;;;;;;;;0.80;96.90;;;;;;5050636;28;20326;-72
2022/03/17 06:37:59;;;;;;;;;;;0.90;96.90;;;;;;5050398;28;19925;-73
2022/03/17 06:40:25;;;;;;;;;;;1.10;96.70;;;;;;5052005;28;20328;-73
2022/03/17 06:42:51;;;;;;;;;;;1.10;96.40;;;;;;5051918;28;19937;-72
2022/03/17 06:45:17;;;;;;;;;;;1.10;94.60;;;;;;5050579;28;20303;-73
2022/03/17 06:47:43;;;;;;;;;;;1.30;92.80;;;;;;5051999;28;20305;-75
2022/03/17 06:50:09;;;;;;;;;;;1.50;92.80;;;;;;5050315;28;20003;-73
2022/03/17 06:52:35;;;;;;;;;;;1.60;93.20;;;;;;5051717;28;19908;-72
2022/03/17 06:55:01;;;;;;;;;;;1.70;91.80;;;;;;5050463;28;20348;-76
2022/03/17 06:57:26;;;;;;;;;;;1.70;90.70;;;;;;5050474;28;19909;-73
2022/03/17 06:59:52;;;;;;;;;;;1.60;89.00;;;;;;5052043;28;19912;-73
2022/03/17 07:02:18;;;;;;;;;;;1.60;89.60;;;;;;5051331;28;19959;-72
2022/03/17 07:04:44;;;;;;;;;;;1.60;89.50;;;;;;5051943;28;19916;-74
2022/03/17 07:07:09;;;;;;;;;;;1.80;90.10;;;;;;5050165;28;19909;-72
2022/03/17 07:09:36;;;;;;;;;;;2.10;90.00;;;;;;5052074;28;19917;-74
2022/03/17 07:12:02;;;;;;;;;;;2.20;89.10;;;;;;5049936;28;19955;-72
2022/03/17 07:14:28;;;;;;;;;;;2.30;88.50;;;;;;5051667;28;19923;-73
2022/03/17 07:16:53;;;;;;;;;;;2.50;84.50;;;;;;5049792;28;20404;-73
2022/03/17 07:19:19;;;;;;;;;;;2.50;84.40;;;;;;5049814;28;19997;-73
2022/03/17 07:21:44;;;;;;;;;;;2.50;82.20;;;;;;5051248;28;19991;-74
2022/03/17 07:24:10;;;;;;;;;;;2.70;82.20;;;;;;5050066;28;20421;-74
2022/03/17 07:26:36;;;;;;;;;;;2.80;82.90;;;;;;5049877;28;19908;-73
2022/03/17 07:29:05;;;;;;;;;;;3.10;82.00;;;;;;5051588;28;19923;-72
2022/03/17 07:31:31;;;;;;;;;;;3.20;79.00;;;;;;5051117;28;19909;-72
2022/03/17 07:33:56;;;;;;;;;;;3.40;78.90;;;;;;5051234;28;20379;-74
2022/03/17 07:36:22;;;;;;;;;;;3.40;79.10;;;;;;5049923;28;19909;-73
2022/03/17 07:38:48;;;;;;;;;;;3.40;78.70;;;;;;5049854;28;19920;-73
2022/03/17 07:41:14;;;;;;;;;;;3.40;77.30;;;;;;5051277;28;19919;-73
2022/03/17 07:43:41;;;;;;;;;;;3.40;77.60;;;;;;5051279;28;20280;-72
2022/03/17 07:46:07;;;;;;;;;;;3.50;77.40;;;;;;5049555;28;19932;-72
2022/03/17 07:48:32;;;;;;;;;;;3.60;76.90;;;;;;5051130;28;19917;-72
2022/03/17 07:50:58;;;;;;;;;;;3.60;76.70;;;;;;5049610;28;20341;-73
2022/03/17 07:53:23;;;;;;;;;;;3.80;77.70;;;;;;5051253;28;19986;-74
2022/03/17 07:55:54;;;;;;;;;;;4.00;78.20;;;;;;5049675;28;20049;-73
2022/03/17 07:58:24;;;;;;;;;;;4.10;78.10;;;;;;5049479;28;20442;-73
2022/03/17 08:00:53;;;;;;;;;;;4.20;75.80;;;;;;5049382;28;20269;-73
2022/03/17 08:03:20;;;;;;;;;;;4.00;74.40;;;;;;5050862;28;19931;-73
2022/03/17 08:05:46;;;;;;;;;;;3.90;76.20;;;;;;5050933;28;19920;-73
2022/03/17 08:08:12;;;;;;;;;;;4.00;76.40;;;;;;5049460;28;19917;-73
2022/03/17 08:10:38;;;;;;;;;;;4.30;75.30;;;;;;5051168;28;20611;-74
2022/03/17 08:13:05;;;;;;;;;;;4.10;73.80;;;;;;5052550;28;19959;-73
2022/03/17 08:15:30;;;;;;;;;;;3.80;74.70;;;;;;5054638;28;19908;-73
2022/03/17 08:17:56;;;;;;;;;;;3.80;75.10;;;;;;5054523;28;20438;-73
2022/03/17 08:20:22;;;;;;;;;;;3.30;73.40;;;;;;5053288;28;19909;-73
2022/03/17 08:22:49;;;;;;;;;;;3.10;75.60;;;;;;5053001;28;19917;-73
2022/03/17 08:25:16;;;;;;;;;;;3.30;75.10;;;;;;5053156;28;19912;-72
2022/03/17 08:27:42;;;;;;;;;;;3.40;74.20;;;;;;5054556;28;20320;-74
2022/03/17 08:30:08;;;;;;;;;;;3.80;75.10;;;;;;5054405;28;19915;-72
2022/03/17 08:32:34;;;;;;;;;;;3.70;72.90;;;;;;5054182;28;20357;-73
2022/03/17 08:34:59;;;;;;;;;;;3.50;73.90;;;;;;5052913;28;19916;-74
2022/03/17 08:37:25;;;;;;;;;;;3.70;74.60;;;;;;5054042;28;19930;-73
2022/03/17 08:39:51;;;;;;;;;;;3.90;72.90;;;;;;5052521;28;19908;-73
2022/03/17 08:42:17;;;;;;;;;;;4.00;72.70;;;;;;5052964;28;20268;-73
2022/03/17 08:44:43;;;;;;;;;;;4.30;71.90;;;;;;5054348;28;19924;-73
2022/03/17 08:49:52;;;;;;;;;;;4.50;70.40;;;;;;5054110;28;19924;-73
2022/03/17 08:52:21;;;;;;;;;;;4.80;71.10;;;;;;5052593;28;20281;-74
2022/03/17 08:54:46;;;;;;;;;;;5.20;71.10;;;;;;5052257;28;20017;-74
2022/03/17 08:57:12;;;;;;;;;;;5.50;68.80;;;;;;5052267;28;19981;-73
2022/03/17 08:59:38;;;;;;;;;;;5.70;69.20;;;;;;5053958;28;19925;-74
2022/03/17 09:02:05;;;;;;;;;;;5.90;67.50;;;;;;5052166;28;19928;-74
2022/03/17 09:04:31;;;;;;;;;;;6.00;66.90;;;;;;5052089;28;19921;-74
2022/03/17 09:07:02;;;;;;;;;;;6.30;67.20;;;;;;5053612;28;19909;-74
2022/03/17 09:09:32;;;;;;;;;;;6.80;67.10;;;;;;5052215;28;19921;-73
2022/03/17 09:11:58;;;;;;;;;;;6.70;66.20;;;;;;5052138;28;19948;-73
2022/03/17 09:14:24;;;;;;;;;;;6.70;65.70;;;;;;5053572;28;19975;-73
2022/03/17 09:16:49;;;;;;;;;;;6.50;65.40;;;;;;5053345;28;19986;-74
2022/03/17 09:19:15;;;;;;;;;;;6.50;65.80;;;;;;5053580;28;20015;-73
2022/03/17 09:21:41;;;;;;;;;;;6.50;65.80;;;;;;5051918;28;19909;-73
2022/03/17 09:24:06;;;;;;;;;;;6.80;64.50;;;;;;5052957;28;19917;-73
2022/03/17 09:26:32;;;;;;;;;;;6.90;65.20;;;;;;5051905;28;19936;-74
2022/03/17 09:28:58;;;;;;;;;;;6.80;64.70;;;;;;5051580;28;20019;-72
2022/03/17 09:31:23;;;;;;;;;;;6.50;63.60;;;;;;5053066;28;20327;-72
2022/03/17 09:33:49;;;;;;;;;;;6.10;63.90;;;;;;5053241;28;19921;-73
2022/03/17 09:36:16;;;;;;;;;;;5.80;64.90;;;;;;5051584;28;19932;-72
2022/03/17 09:38:42;;;;;;;;;;;5.30;65.40;;;;;;5051453;28;19985;-72
2022/03/17 09:41:23;;;;;;;;;;;5.20;66.00;;;;;;5052744;28;20398;-73
2022/03/17 09:43:48;;;;;;;;;;;5.40;66.90;;;;;;5051733;28;19916;-74
2022/03/17 09:46:15;;;;;;;;;;;5.70;65.80;;;;;;5052010;28;19912;-74
2022/03/17 09:48:41;;;;;;;;;;;6.20;65.20;;;;;;5053732;28;19917;-74
2022/03/17 09:51:07;;;;;;;;;;;6.60;63.90;;;;;;5053121;28;20003;-73
2022/03/17 09:53:32;;;;;;;;;;;6.90;63.50;;;;;;5053397;28;20012;-73
2022/03/17 09:55:58;;;;;;;;;;;7.10;63.20;;;;;;5053101;28;19978;-74
2022/03/17 09:58:23;;;;;;;;;;;7.30;62.20;;;;;;5051909;28;20327;-74
2022/03/17 10:00:49;;;;;;;;;;;7.20;62.70;;;;;;5051340;28;19909;-73
2022/03/17 10:03:16;;;;;;;;;;;7.10;62.10;;;;;;5051163;28;20391;-73
2022/03/17 10:05:46;;;;;;;;;;;7.00;63.50;;;;;;5052512;28;19938;-74
2022/03/17 10:08:12;;;;;;;;;;;6.80;63.30;;;;;;5052579;28;19932;-74
2022/03/17 10:10:38;;;;;;;;;;;6.20;63.50;;;;;;5052735;28;19909;-74
2022/03/17 10:13:05;;;;;;;;;;;6.70;66.10;;;;;;5052498;28;19923;-73
2022/03/17 10:15:33;;;;;;;;;;;6.10;63.70;;;;;;5052718;28;19996;-72
2022/03/17 10:18:00;;;;;;;;;;;6.30;64.20;;;;;;5051009;28;20381;-74
2022/03/17 10:20:27;;;;;;;;;;;6.70;64.50;;;;;;5050570;28;20393;-74
2022/03/17 10:22:54;;;;;;;;;;;6.90;63.60;;;;;;5052141;28;19917;-74
2022/03/17 10:25:24;;;;;;;;;;;6.60;63.40;;;;;;5050789;28;20455;-74
2022/03/17 10:27:50;;;;;;;;;;;6.30;63.50;;;;;;5050591;28;19917;-75
2022/03/17 10:30:23;;;;;;;;;;;5.90;64.40;;;;;;5052023;28;19909;-73
2022/03/17 10:33:00;;;;;;;;;;;6.00;63.50;;;;;;5052020;28;19921;-74
2022/03/17 10:35:27;;;;;;;;;;;6.60;64.50;;;;;;5051021;28;20399;-74
2022/03/17 10:37:53;;;;;;;;;;;7.20;63.60;;;;;;5050567;28;19981;-74
2022/03/17 10:40:27;;;;;;;;;;;7.60;63.90;;;;;;5051878;28;20430;-74
2022/03/17 10:42:53;;;;;;;;;;;7.80;62.70;;;;;;5051891;28;20442;-73
2022/03/17 10:45:18;;;;;;;;;;;8.00;63.50;;;;;;5051952;28;19920;-74
2022/03/17 10:47:44;;;;;;;;;;;8.20;62.60;;;;;;5051858;28;20327;-73
2022/03/17 10:50:15;;;;;;;;;;;7.40;62.20;;;;;;5050685;28;19909;-72
2022/03/17 10:52:49;;;;;;;;;;;6.80;63.60;;;;;;5051563;28;20305;-72
2022/03/17 10:55:18;;;;;;;;;;;6.00;64.60;;;;;;5051697;28;19913;-73
2022/03/17 10:57:43;;;;;;;;;;;6.00;65.80;;;;;;5051541;28;19948;-74
2022/03/17 11:00:19;;;;;;;;;;;6.00;65.30;;;;;;5050359;28;20356;-75
2022/03/17 11:02:48;;;;;;;;;;;6.00;65.20;;;;;;5051622;28;19929;-74
2022/03/17 11:05:14;;;;;;;;;;;5.80;65.40;;;;;;5050469;28;19913;-74
2022/03/17 11:07:43;;;;;;;;;;;5.40;65.70;;;;;;5050277;28;19913;-74
2022/03/17 11:10:09;;;;;;;;;;;5.00;66.40;;;;;;5051547;28;20381;-73
2022/03/17 11:12:35;;;;;;;;;;;4.50;67.00;;;;;;5050191;28;19971;-73
2022/03/17 11:15:03;;;;;;;;;;;4.80;67.60;;;;;;5050129;28;20423;-75
2022/03/17 11:17:31;;;;;;;;;;;5.50;66.90;;;;;;5051504;28;20361;-72
2022/03/17 11:20:20;;;;;;;;;;;6.10;65.20;;;;;;5050093;28;19909;-73
2022/03/17 11:23:03;;;;;;;;;;;6.60;64.80;;;;;;5041933;28;19917;-73
2022/03/17 11:25:29;;;;;;;;;;;7.10;63.40;;;;;;5051274;28;19917;-73
2022/03/17 11:27:58;;;;;;;;;;;7.60;62.90;;;;;;5051318;28;19944;-73
2022/03/17 11:30:31;;;;;;;;;;;7.40;61.80;;;;;;5051476;28;19959;-73
2022/03/17 11:32:58;;;;;;;;;;;7.70;60.00;;;;;;5051382;28;19920;-74
2022/03/17 11:35:29;;;;;;;;;;;7.60;61.20;;;;;;5049835;28;19916;-73
2022/03/17 11:38:15;;;;;;;;;;;7.80;61.00;;;;;;5051181;28;19924;-74
2022/03/17 11:40:59;;;;;;;;;;;8.10;60.40;;;;;;5051210;28;19909;-74
2022/03/17 11:43:25;;;;;;;;;;;8.30;60.10;;;;;;5051416;28;20309;-73
2022/03/17 11:46:08;;;;;;;;;;;7.90;60.00;;;;;;5050989;28;19952;-73
2022/03/17 11:48:36;;;;;;;;;;;7.20;60.60;;;;;;5053685;28;19920;-73
2022/03/17 11:51:06;;;;;;;;;;;6.40;61.70;;;;;;5055061;28;19915;-73
2022/03/17 11:53:43;;;;;;;;;;;5.90;63.40;;;;;;5053788;28;20281;-73
2022/03/17 11:56:09;;;;;;;;;;;5.50;63.40;;;;;;5053614;28;19944;-73
2022/03/17 11:58:40;;;;;;;;;;;5.10;63.30;;;;;;5053666;28;19975;-73
2022/03/17 12:01:11;;;;;;;;;;;4.70;63.30;;;;;;5054819;28;19909;-73
2022/03/17 12:03:43;;;;;;;;;;;4.60;63.90;;;;;;5055257;28;19948;-74
2022/03/17 12:06:08;;;;;;;;;;;4.40;65.10;;;;;;5053798;28;19959;-74
2022/03/17 12:08:35;;;;;;;;;;;4.20;66.10;;;;;;5053662;28;19916;-73
2022/03/17 12:11:05;;;;;;;;;;;4.20;66.30;;;;;;5054513;28;20034;-73
2022/03/17 12:13:32;;;;;;;;;;;4.20;66.40;;;;;;5055200;28;19939;-74
2022/03/17 12:15:58;;;;;;;;;;;4.20;66.60;;;;;;5053327;28;19909;-73
2022/03/17 12:18:23;;;;;;;;;;;4.10;66.90;;;;;;5053179;28;19921;-74
2022/03/17 12:20:52;;;;;;;;;;;4.10;66.40;;;;;;5054616;28;19952;-74
2022/03/17 12:23:36;;;;;;;;;;;4.00;67.30;;;;;;5053178;28;19996;-73
2022/03/17 12:26:03;;;;;;;;;;;4.00;67.30;;;;;;5053162;28;20368;-73
2022/03/17 12:28:30;;;;;;;;;;;3.90;67.60;;;;;;5054663;28;20384;-74
2022/03/17 12:30:56;;;;;;;;;;;3.80;68.40;;;;;;5054554;28;20362;-73
2022/03/17 12:33:22;;;;;;;;;;;3.80;67.30;;;;;;5054132;28;19940;-74
2022/03/17 12:36:02;;;;;;;;;;;3.70;67.10;;;;;;5054329;28;19909;-73
2022/03/17 12:38:28;;;;;;;;;;;3.70;67.00;;;;;;5054296;28;19924;-73
2022/03/17 12:40:54;;;;;;;;;;;3.60;67.70;;;;;;5052859;28;19961;-73
2022/03/17 12:43:21;;;;;;;;;;;3.60;69.20;;;;;;5054141;28;19924;-72
2022/03/17 12:45:48;;;;;;;;;;;3.70;70.40;;;;;;5054103;28;19913;-73
2022/03/17 12:48:14;;;;;;;;;;;3.70;68.80;;;;;;5054153;28;20249;-73
2022/03/17 12:50:39;;;;;;;;;;;3.60;68.90;;;;;;5054028;28;19916;-72
2022/03/17 12:53:05;;;;;;;;;;;3.50;69.30;;;;;;5053967;28;19921;-73
2022/03/17 12:55:32;;;;;;;;;;;3.20;69.50;;;;;;5054080;28;20042;-72
2022/03/17 12:57:58;;;;;;;;;;;2.90;69.80;;;;;;5053459;28;19924;-73
2022/03/17 13:00:24;;;;;;;;;;;2.80;70.30;;;;;;5052069;28;19935;-73
2022/03/17 13:02:51;;;;;;;;;;;2.90;70.90;;;;;;5052481;28;20288;-73
2022/03/17 13:08:02;;;;;;;;;;;3.50;70.80;;;;;;5053775;28;19967;-73
2022/03/17 13:10:28;;;;;;;;;;;3.80;69.30;;;;;;5052316;28;19913;-72
2022/03/17 13:15:42;;;;;;;;;;;4.00;68.40;;;;;;5053787;28;19923;-72
2022/03/17 13:18:10;;;;;;;;;;;4.10;68.40;;;;;;5053565;28;20034;-71
2022/03/17 13:20:35;;;;;;;;;;;4.10;68.70;;;;;;5052131;28;20434;-72
2022/03/17 13:23:01;;;;;;;;;;;4.00;68.00;;;;;;5051925;28;19921;-73
2022/03/17 13:25:27;;;;;;;;;;;3.90;68.30;;;;;;5053275;28;19909;-72
2022/03/17 13:27:57;;;;;;;;;;;4.00;68.70;;;;;;5053278;28;19920;-74
2022/03/17 13:30:23;;;;;;;;;;;4.00;67.70;;;;;;5053219;28;19909;-74
2022/03/17 13:32:59;;;;;;;;;;;3.90;66.50;;;;;;5053201;28;19916;-74
2022/03/17 13:35:24;;;;;;;;;;;3.70;67.50;;;;;;5053187;28;19924;-74
2022/03/17 13:37:50;;;;;;;;;;;3.70;67.40;;;;;;5051760;28;19932;-72
2022/03/17 13:40:18;;;;;;;;;;;3.70;67.60;;;;;;5053027;28;19909;-73
2022/03/17 13:42:59;;;;;;;;;;;3.70;67.70;;;;;;5051535;28;19921;-73
2022/03/17 13:45:41;;;;;;;;;;;3.70;67.90;;;;;;5053344;28;19913;-72
2022/03/17 13:48:08;;;;;;;;;;;3.70;67.80;;;;;;5052941;28;20004;-72
2022/03/17 13:50:35;;;;;;;;;;;3.70;67.30;;;;;;5052958;28;19913;-72
2022/03/17 13:53:00;;;;;;;;;;;3.60;67.30;;;;;;5051443;28;20333;-71
2022/03/17 13:55:46;;;;;;;;;;;3.40;67.10;;;;;;5051413;28;19915;-72
2022/03/17 13:58:17;;;;;;;;;;;3.30;67.60;;;;;;5052704;28;20335;-72
2022/03/17 14:00:43;;;;;;;;;;;3.20;68.50;;;;;;5051495;28;19909;-73
2022/03/17 14:03:15;;;;;;;;;;;3.30;68.30;;;;;;5052490;28;20327;-73
2022/03/17 14:05:59;;;;;;;;;;;3.20;68.30;;;;;;5051498;28;20386;-72
2022/03/17 14:08:25;;;;;;;;;;;3.20;68.50;;;;;;5051433;28;19916;-74
2022/03/17 14:10:51;;;;;;;;;;;3.20;68.50;;;;;;5051462;28;19909;-73
2022/03/17 14:13:17;;;;;;;;;;;3.10;68.80;;;;;;5051192;28;19917;-73
2022/03/17 14:15:43;;;;;;;;;;;3.10;68.20;;;;;;5052491;28;19913;-72
2022/03/17 14:18:10;;;;;;;;;;;3.10;68.00;;;;;;5050911;28;19990;-72
2022/03/17 14:20:35;;;;;;;;;;;3.10;67.60;;;;;;5051042;28;19920;-72
2022/03/17 14:25:45;;;;;;;;;;;2.90;67.40;;;;;;5052633;28;19986;-72
2022/03/17 14:28:12;;;;;;;;;;;2.90;67.60;;;;;;5052160;28;20420;-73
2022/03/17 14:30:37;;;;;;;;;;;2.80;67.50;;;;;;5052423;28;20313;-72
2022/03/17 14:33:03;;;;;;;;;;;2.70;67.80;;;;;;5051137;28;20011;-73
2022/03/17 14:35:28;;;;;;;;;;;2.80;67.80;;;;;;5050935;28;19950;-73
2022/03/17 14:37:54;;;;;;;;;;;2.80;68.10;;;;;;5050765;28;20385;-72
2022/03/17 14:40:19;;;;;;;;;;;2.80;67.30;;;;;;5052171;28;19993;-71
2022/03/17 14:42:49;;;;;;;;;;;2.80;67.60;;;;;;5051842;28;19967;-73
2022/03/17 14:45:14;;;;;;;;;;;2.70;68.00;;;;;;5052200;28;20004;-73